createdAt,value
2018-12-09T00:00:15.525Z,4.03
2018-12-09T00:02:44.065Z,3.97
2018-12-09T00:05:12.597Z,4.53
2018-12-09T00:07:41.179Z,4.23
2018-12-09T00:10:09.843Z,4.57
2018-12-09T00:12:38.565Z,4.70
2018-12-09T00:15:08.092Z,4.40
2018-12-09T00:17:37.353Z,4.77
2018-12-09T00:20:06.196Z,4.77
2018-12-09T00:22:34.885Z,4.87
2018-12-09T00:25:03.533Z,4.63
2018-12-09T00:27:32.181Z,4.40
2018-12-09T00:30:00.695Z,4.00
2018-12-09T00:32:29.244Z,3.90
2018-12-09T00:34:58.317Z,4.23
2018-12-09T00:37:26.858Z,3.57
2018-12-09T00:39:55.354Z,4.17
2018-12-09T00:42:24.008Z,3.77
2018-12-09T00:44:52.540Z,3.70
2018-12-09T00:47:21.056Z,3.53
2018-12-09T00:49:49.763Z,3.43
2018-12-09T00:52:18.448Z,3.17
2018-12-09T00:54:47.081Z,3.50
2018-12-09T00:57:15.705Z,2.80
2018-12-09T00:59:44.344Z,2.97
2018-12-09T01:02:12.894Z,3.37
2018-12-09T01:04:41.483Z,2.90
2018-12-09T01:07:09.998Z,3.40
2018-12-09T01:09:38.573Z,3.03
2018-12-09T01:12:07.194Z,3.77
2018-12-09T01:14:35.745Z,3.90
2018-12-09T01:17:04.380Z,3.80
2018-12-09T01:19:33.044Z,3.27
2018-12-09T01:22:01.606Z,3.73
2018-12-09T01:24:30.140Z,3.57
2018-12-09T01:26:58.686Z,3.70
2018-12-09T01:29:27.199Z,4.47
2018-12-09T01:31:55.745Z,4.17
2018-12-09T01:34:25.928Z,4.77
2018-12-09T01:36:54.486Z,4.03
2018-12-09T01:39:23.014Z,3.70
2018-12-09T01:41:51.651Z,4.27
2018-12-09T01:44:20.201Z,3.60
2018-12-09T01:46:48.733Z,3.97
2018-12-09T01:49:17.256Z,3.80
2018-12-09T01:51:45.802Z,3.77
2018-12-09T01:54:15.673Z,4.23
2018-12-09T01:56:44.252Z,3.77
2018-12-09T01:59:12.766Z,3.80
2018-12-09T02:01:41.672Z,3.63
2018-12-09T02:04:10.688Z,3.73
2018-12-09T02:06:39.240Z,3.37
2018-12-09T02:09:09.049Z,3.50
2018-12-09T02:11:38.074Z,3.27
2018-12-09T02:14:06.643Z,3.53
2018-12-09T02:16:35.627Z,2.70
2018-12-09T02:19:25.499Z,2.87
2018-12-09T02:21:54.195Z,2.97
2018-12-09T02:24:23.398Z,2.90
2018-12-09T02:26:52.046Z,2.83
2018-12-09T02:29:20.608Z,3.27
2018-12-09T02:31:49.132Z,3.13
2018-12-09T02:34:17.827Z,3.30
2018-12-09T02:36:46.347Z,3.03
2018-12-09T02:39:15.210Z,3.20
2018-12-09T02:41:43.852Z,3.03
2018-12-09T02:44:12.417Z,3.73
2018-12-09T02:46:41.242Z,4.03
2018-12-09T02:49:09.783Z,3.53
2018-12-09T02:51:38.487Z,3.70
2018-12-09T02:54:07.185Z,3.47
2018-12-09T02:56:35.990Z,3.80
2018-12-09T02:59:04.652Z,3.30
2018-12-09T03:01:33.202Z,3.40
2018-12-09T03:04:01.886Z,3.83
2018-12-09T03:06:30.426Z,4.57
2018-12-09T03:08:59.010Z,3.90
2018-12-09T03:11:27.608Z,3.40
2018-12-09T03:13:56.441Z,3.57
2018-12-09T03:16:25.011Z,3.03
2018-12-09T03:18:54.320Z,3.50
2018-12-09T03:21:22.839Z,3.80
2018-12-09T03:23:51.375Z,3.50
2018-12-09T03:26:19.993Z,3.27
2018-12-09T03:28:48.663Z,3.63
2018-12-09T03:31:17.650Z,3.47
2018-12-09T03:33:46.217Z,3.70
2018-12-09T03:36:14.825Z,3.37
2018-12-09T03:38:43.349Z,3.50
2018-12-09T03:41:11.919Z,3.57
2018-12-09T03:43:40.471Z,3.37
2018-12-09T03:46:08.953Z,3.70
2018-12-09T03:48:37.508Z,3.30
2018-12-09T03:51:06.435Z,3.77
2018-12-09T03:53:35.412Z,3.57
2018-12-09T03:56:04.150Z,3.23
2018-12-09T03:58:32.736Z,3.27
2018-12-09T04:01:01.243Z,3.33
2018-12-09T04:03:29.764Z,3.20
2018-12-09T04:05:58.352Z,3.53
2018-12-09T04:08:27.009Z,3.17
2018-12-09T04:10:55.997Z,3.17
2018-12-09T04:13:24.912Z,2.80
2018-12-09T04:15:53.883Z,3.00
2018-12-09T04:18:22.687Z,3.00
2018-12-09T04:20:51.405Z,3.00
2018-12-09T04:23:20.161Z,3.30
2018-12-09T04:25:49.083Z,3.40
2018-12-09T04:28:17.849Z,3.77
2018-12-09T04:30:46.431Z,3.43
2018-12-09T04:33:15.079Z,3.30
2018-12-09T04:35:43.815Z,3.10
2018-12-09T04:38:12.329Z,3.30
2018-12-09T04:40:40.855Z,3.20
2018-12-09T04:43:09.421Z,3.03
2018-12-09T04:45:38.221Z,3.33
2018-12-09T04:48:06.771Z,3.50
2018-12-09T04:50:35.723Z,3.07
2018-12-09T04:53:04.239Z,3.30
2018-12-09T04:55:32.951Z,3.43
2018-12-09T04:58:01.650Z,3.60
2018-12-09T05:00:41.591Z,3.30
2018-12-09T05:03:10.273Z,3.33
2018-12-09T05:05:38.863Z,3.40
2018-12-09T05:08:07.436Z,3.63
2018-12-09T05:10:36.042Z,3.13
2018-12-09T05:13:05.475Z,3.70
2018-12-09T05:15:34.043Z,3.33
2018-12-09T05:18:02.807Z,3.23
2018-12-09T05:20:31.355Z,3.60
2018-12-09T05:23:00.435Z,3.37
2018-12-09T05:25:29.471Z,2.77
2018-12-09T05:27:58.198Z,3.53
2018-12-09T05:30:26.848Z,3.23
2018-12-09T05:32:55.483Z,3.10
2018-12-09T05:35:23.996Z,3.30
2018-12-09T05:37:52.541Z,3.77
2018-12-09T05:40:21.236Z,3.43
2018-12-09T05:42:49.771Z,3.73
2018-12-09T05:45:18.441Z,3.20
2018-12-09T05:47:46.992Z,3.40
2018-12-09T05:50:15.510Z,3.60
2018-12-09T05:52:44.045Z,3.27
2018-12-09T05:55:12.529Z,3.20
2018-12-09T05:57:41.066Z,3.50
2018-12-09T06:00:09.770Z,3.37
2018-12-09T06:02:51.640Z,3.57
2018-12-09T06:05:20.147Z,3.57
2018-12-09T06:07:49.338Z,3.90
2018-12-09T06:10:18.036Z,3.30
2018-12-09T06:12:46.572Z,3.83
2018-12-09T06:15:15.087Z,3.40
2018-12-09T06:17:43.852Z,3.50
2018-12-09T06:20:12.946Z,3.80
2018-12-09T06:22:41.807Z,3.57
2018-12-09T06:25:10.426Z,4.00
2018-12-09T06:27:38.958Z,3.60
2018-12-09T06:30:10.356Z,3.40
2018-12-09T06:32:39.364Z,3.33
2018-12-09T06:35:08.734Z,3.40
2018-12-09T06:37:37.254Z,3.73
2018-12-09T06:40:06.319Z,3.40
2018-12-09T06:42:35.267Z,3.33
2018-12-09T06:45:04.015Z,3.63
2018-12-09T06:47:32.640Z,3.50
2018-12-09T06:50:01.314Z,3.87
2018-12-09T06:52:29.894Z,3.63
2018-12-09T06:54:58.941Z,3.70
2018-12-09T06:57:27.631Z,4.40
2018-12-09T06:59:56.219Z,4.00
2018-12-09T07:02:24.768Z,3.77
2018-12-09T07:04:53.684Z,3.47
2018-12-09T07:07:22.641Z,3.97
2018-12-09T07:09:51.485Z,3.13
2018-12-09T07:12:20.061Z,4.03
2018-12-09T07:14:49.057Z,4.07
2018-12-09T07:17:17.590Z,4.13
2018-12-09T07:19:46.957Z,3.73
2018-12-09T07:22:15.744Z,4.43
2018-12-09T07:24:44.311Z,4.40
2018-12-09T07:27:13.408Z,3.47
2018-12-09T07:29:42.261Z,4.13
2018-12-09T07:32:10.969Z,3.97
2018-12-09T07:34:39.731Z,4.03
2018-12-09T07:37:08.728Z,4.80
2018-12-09T07:39:38.261Z,4.17
2018-12-09T07:42:07.014Z,4.23
2018-12-09T07:44:35.701Z,4.07
2018-12-09T07:47:04.424Z,4.00
2018-12-09T07:49:33.433Z,3.67
2018-12-09T07:52:02.336Z,3.63
2018-12-09T07:54:31.036Z,4.07
2018-12-09T07:56:59.693Z,4.07
2018-12-09T07:59:28.823Z,3.40
2018-12-09T08:01:57.719Z,4.63
2018-12-09T08:04:26.296Z,3.63
2018-12-09T08:06:55.039Z,4.40
2018-12-09T08:09:23.612Z,4.00
2018-12-09T08:11:52.241Z,4.17
2018-12-09T08:14:20.801Z,3.70
2018-12-09T08:16:49.409Z,3.90
2018-12-09T08:19:17.956Z,4.50
2018-12-09T08:21:47.504Z,3.73
2018-12-09T08:24:16.183Z,3.97
2018-12-09T08:26:45.220Z,3.33
2018-12-09T08:29:13.830Z,3.63
2018-12-09T08:31:42.518Z,4.40
2018-12-09T08:34:12.934Z,4.00
2018-12-09T08:36:41.458Z,3.70
2018-12-09T08:39:10.088Z,3.57
2018-12-09T08:41:39.424Z,3.43
2018-12-09T08:44:08.226Z,3.57
2018-12-09T08:46:37.070Z,3.70
2018-12-09T08:49:06.078Z,3.50
2018-12-09T08:51:34.677Z,3.67
2018-12-09T08:54:03.453Z,3.30
2018-12-09T08:56:32.557Z,3.77
2018-12-09T08:59:01.659Z,2.70
2018-12-09T09:01:30.848Z,2.90
2018-12-09T09:03:59.760Z,2.80
2018-12-09T09:06:28.375Z,3.20
2018-12-09T09:08:57.901Z,2.80
2018-12-09T09:11:26.817Z,3.07
2018-12-09T09:13:56.018Z,3.50
2018-12-09T09:16:25.288Z,3.23
2018-12-09T09:18:54.605Z,3.03
2018-12-09T09:21:23.413Z,3.07
2018-12-09T09:23:51.998Z,2.87
2018-12-09T09:26:21.015Z,2.53
2018-12-09T09:28:49.575Z,3.37
2018-12-09T09:31:18.455Z,2.30
2018-12-09T09:33:47.421Z,2.93
2018-12-09T09:36:16.105Z,2.83
2018-12-09T09:38:45.189Z,3.30
2018-12-09T09:41:14.267Z,2.90
2018-12-09T09:43:42.958Z,3.10
2018-12-09T09:46:11.970Z,3.17
2018-12-09T09:48:40.611Z,2.57
2018-12-09T09:51:09.330Z,2.90
2018-12-09T09:53:39.245Z,2.60
2018-12-09T09:56:08.049Z,2.67
2018-12-09T09:58:36.943Z,2.70
2018-12-09T10:01:05.741Z,2.50
2018-12-09T10:03:34.333Z,2.67
2018-12-09T10:06:03.254Z,2.40
2018-12-09T10:08:31.814Z,2.67
2018-12-09T10:11:00.548Z,2.37
2018-12-09T10:13:29.359Z,2.20
2018-12-09T10:15:58.128Z,2.17
2018-12-09T10:18:26.914Z,2.00
2018-12-09T10:20:55.840Z,2.13
2018-12-09T10:23:24.832Z,2.30
2018-12-09T10:25:53.391Z,2.40
2018-12-09T10:28:21.991Z,2.27
2018-12-09T10:30:51.099Z,2.10
2018-12-09T10:33:19.966Z,2.57
2018-12-09T10:35:48.713Z,1.80
2018-12-09T10:38:17.490Z,2.00
2018-12-09T10:40:46.081Z,2.20
2018-12-09T10:43:14.745Z,1.90
2018-12-09T10:45:43.661Z,2.50
2018-12-09T10:48:12.207Z,2.20
2018-12-09T10:50:40.962Z,2.20
2018-12-09T10:53:09.721Z,2.17
2018-12-09T10:55:38.435Z,1.80
2018-12-09T10:58:07.096Z,1.97
2018-12-09T11:00:41.139Z,1.97
2018-12-09T11:03:09.704Z,2.13
2018-12-09T11:05:38.369Z,2.47
2018-12-09T11:08:07.155Z,1.97
2018-12-09T11:10:35.775Z,2.33
2018-12-09T11:13:04.715Z,1.80
2018-12-09T11:15:33.485Z,2.20
2018-12-09T11:18:02.559Z,2.00
2018-12-09T11:20:31.342Z,2.17
2018-12-09T11:23:00.174Z,1.73
2018-12-09T11:25:28.856Z,1.87
2018-12-09T11:27:57.435Z,1.80
2018-12-09T11:30:26.020Z,2.00
2018-12-09T11:32:54.758Z,1.80
2018-12-09T11:35:23.383Z,1.90
2018-12-09T11:37:52.342Z,1.80
2018-12-09T11:40:21.333Z,1.90
2018-12-09T11:42:50.807Z,2.03
2018-12-09T11:45:19.410Z,1.83
2018-12-09T11:47:48.430Z,1.90
2018-12-09T11:50:17.260Z,1.90
2018-12-09T11:52:45.769Z,1.87
2018-12-09T11:55:14.595Z,2.00
2018-12-09T11:57:43.101Z,1.60
2018-12-09T12:00:13.966Z,1.67
2018-12-09T12:02:42.506Z,1.80
2018-12-09T12:05:11.107Z,1.80
2018-12-09T12:07:39.656Z,1.97
2018-12-09T12:10:09.344Z,2.30
2018-12-09T12:12:37.928Z,2.10
2018-12-09T12:15:07.250Z,2.20
2018-12-09T12:17:36.344Z,2.20
2018-12-09T12:20:05.728Z,2.30
2018-12-09T12:22:34.945Z,2.07
2018-12-09T12:25:03.969Z,1.70
2018-12-09T12:27:32.878Z,1.80
2018-12-09T12:30:01.436Z,1.97
2018-12-09T12:32:30.027Z,1.60
2018-12-09T12:34:59.007Z,1.70
2018-12-09T12:37:27.982Z,1.67
2018-12-09T12:39:56.844Z,1.63
2018-12-09T12:42:25.605Z,1.50
2018-12-09T12:44:54.767Z,1.90
2018-12-09T12:47:23.528Z,2.00
2018-12-09T12:49:52.334Z,1.90
2018-12-09T12:52:21.335Z,2.00
2018-12-09T12:54:49.903Z,2.03
2018-12-09T12:57:18.595Z,2.30
2018-12-09T12:59:47.179Z,2.20
2018-12-09T13:02:16.519Z,1.97
2018-12-09T13:04:45.101Z,2.10
2018-12-09T13:07:13.745Z,1.90
2018-12-09T13:09:42.761Z,2.07
2018-12-09T13:12:11.295Z,1.90
2018-12-09T13:14:39.923Z,2.03
2018-12-09T13:17:08.481Z,1.80
2018-12-09T13:19:37.032Z,1.30
2018-12-09T13:22:05.627Z,1.57
2018-12-09T13:27:01.176Z,1.40
2018-12-09T13:32:42.400Z,1.63
2018-12-09T13:35:24.670Z,1.27
2018-12-09T13:38:08.934Z,1.40
2018-12-09T13:40:45.903Z,1.30
2018-12-09T13:43:34.128Z,1.40
2018-12-09T13:52:08.025Z,1.43
2018-12-09T13:54:57.897Z,1.50
2018-12-09T13:57:42.861Z,1.80
2018-12-09T14:00:20.655Z,1.70
2018-12-09T14:02:56.152Z,1.50
2018-12-09T14:08:26.430Z,1.73
2018-12-09T14:11:02.088Z,1.80
2018-12-09T14:13:36.398Z,1.30
2018-12-09T14:16:15.330Z,1.70
2018-12-09T14:19:00.467Z,1.70
2018-12-09T14:21:51.470Z,1.57
2018-12-09T14:24:30.938Z,1.50
2018-12-09T14:27:07.995Z,1.60
2018-12-09T14:29:58.750Z,1.80
2018-12-09T14:32:46.225Z,1.57
2018-12-09T14:35:20.048Z,1.60
2018-12-09T14:37:58.564Z,1.50
2018-12-09T14:40:35.880Z,1.50
2018-12-09T14:43:10.166Z,1.50
2018-12-09T14:46:01.069Z,1.50
2018-12-09T14:48:39.339Z,1.50
2018-12-09T14:51:13.624Z,1.30
2018-12-09T14:53:49.929Z,1.50
2018-12-09T14:56:26.558Z,1.63
2018-12-09T14:59:01.358Z,1.87
2018-12-09T15:01:42.275Z,1.40
2018-12-09T15:07:15.947Z,1.50
2018-12-09T15:09:51.003Z,1.70
2018-12-09T15:12:23.189Z,1.70
2018-12-09T15:14:57.480Z,1.40
2018-12-09T15:17:29.440Z,2.07
2018-12-09T15:22:43.327Z,1.40
2018-12-09T15:25:11.815Z,1.60
2018-12-09T15:27:40.251Z,1.90
2018-12-09T15:32:17.391Z,1.70
2018-12-09T15:34:46.252Z,1.50
2018-12-09T15:37:16.777Z,1.57
2018-12-09T15:39:49.363Z,1.70
2018-12-09T15:42:19.631Z,1.60
2018-12-09T15:44:48.116Z,1.60
2018-12-09T15:47:16.559Z,1.77
2018-12-09T15:49:44.990Z,1.90
2018-12-09T15:52:13.487Z,1.60
2018-12-09T15:54:41.950Z,1.50
2018-12-09T15:57:10.529Z,1.70
2018-12-09T15:59:39.008Z,1.83
2018-12-09T16:02:07.458Z,1.97
2018-12-09T16:04:35.971Z,2.13
2018-12-09T16:07:06.501Z,1.47
2018-12-09T16:09:35.119Z,1.50
2018-12-09T16:12:03.931Z,1.70
2018-12-09T16:14:32.522Z,1.50
2018-12-09T16:17:02.285Z,1.50
2018-12-09T16:19:30.774Z,1.63
2018-12-09T16:21:59.707Z,1.77
2018-12-09T16:24:28.299Z,1.90
2018-12-09T16:26:57.155Z,2.07
2018-12-09T16:29:25.918Z,1.60
2018-12-09T16:31:55.077Z,1.60
2018-12-09T16:34:23.527Z,1.77
2018-12-09T16:36:52.030Z,1.80
2018-12-09T16:39:20.495Z,2.00
2018-12-09T16:41:49.259Z,1.50
2018-12-09T16:44:18.300Z,1.70
2018-12-09T16:46:47.409Z,1.50
2018-12-09T16:49:15.879Z,1.50
2018-12-09T16:51:45.092Z,1.80
2018-12-09T16:54:13.550Z,1.70
2018-12-09T16:56:42.030Z,1.60
2018-12-09T16:59:10.526Z,1.60
2018-12-09T17:01:40.307Z,1.57
2018-12-09T17:04:09.881Z,1.53
2018-12-09T17:06:38.337Z,2.03
2018-12-09T17:09:07.518Z,1.40
2018-12-09T17:11:36.008Z,1.33
2018-12-09T17:14:04.427Z,1.80
2018-12-09T17:16:32.865Z,1.77
2018-12-09T17:19:01.366Z,1.73
2018-12-09T17:21:30.036Z,1.73
2018-12-09T17:23:59.243Z,1.50
2018-12-09T17:26:28.114Z,1.77
2018-12-09T17:28:56.613Z,1.50
2018-12-09T17:31:25.039Z,1.80
2018-12-09T17:33:53.698Z,1.60
2018-12-09T17:36:22.115Z,1.60
2018-12-09T17:38:50.572Z,1.70
2018-12-09T17:41:24.893Z,1.83
2018-12-09T17:43:49.504Z,2.00
2018-12-09T17:46:17.981Z,1.87
2018-12-09T17:48:46.486Z,1.97
2018-12-09T17:51:14.909Z,2.10
2018-12-09T17:53:43.483Z,2.17
2018-12-09T17:56:12.048Z,1.87
2018-12-09T17:58:40.750Z,1.60
2018-12-09T18:01:13.840Z,1.60
2018-12-09T18:03:42.348Z,2.40
2018-12-09T18:06:11.055Z,1.70
2018-12-09T18:08:39.802Z,1.90
2018-12-09T18:11:08.644Z,1.90
2018-12-09T18:13:37.359Z,1.83
2018-12-09T18:16:05.814Z,1.80
2018-12-09T18:18:36.236Z,1.80
2018-12-09T18:21:05.096Z,2.37
2018-12-09T18:23:33.544Z,2.00
2018-12-09T18:26:02.650Z,1.90
2018-12-09T18:28:31.279Z,1.90
2018-12-09T18:30:59.762Z,2.07
2018-12-09T18:33:28.659Z,1.97
2018-12-09T18:35:58.064Z,2.27
2018-12-09T18:38:27.105Z,2.00
2018-12-09T18:40:55.619Z,1.60
2018-12-09T18:43:25.053Z,2.03
2018-12-09T18:45:53.523Z,2.10
2018-12-09T18:48:22.484Z,2.10
2018-12-09T18:50:51.203Z,1.93
2018-12-09T18:53:20.013Z,2.13
2018-12-09T18:55:48.743Z,2.47
2018-12-09T18:58:17.630Z,2.30
2018-12-09T19:00:48.449Z,2.33
2018-12-09T19:03:18.763Z,2.20
2018-12-09T19:05:50.425Z,2.70
2018-12-09T19:08:19.302Z,2.00
2018-12-09T19:10:47.947Z,2.30
2018-12-09T19:13:17.138Z,2.40
2018-12-09T19:15:47.039Z,2.33
2018-12-09T19:18:15.678Z,2.40
2018-12-09T19:20:44.215Z,2.80
2018-12-09T19:23:12.748Z,2.70
2018-12-09T19:25:41.245Z,2.40
2018-12-09T19:28:09.860Z,2.40
2018-12-09T19:33:37.631Z,2.20
2018-12-09T19:36:06.079Z,2.87
2018-12-09T19:38:40.251Z,2.80
2018-12-09T19:41:05.364Z,2.80
2018-12-09T19:43:33.843Z,2.63
2018-12-09T19:46:02.297Z,2.63
2018-12-09T19:48:31.181Z,2.20
2018-12-09T19:50:59.643Z,2.43
2018-12-09T19:53:28.115Z,2.57
2018-12-09T19:55:56.601Z,2.40
2018-12-09T19:58:25.409Z,2.30
2018-12-09T20:00:53.948Z,2.17
2018-12-09T20:03:22.516Z,2.23
2018-12-09T20:05:51.091Z,2.23
2018-12-09T20:08:19.742Z,2.40
2018-12-09T20:10:48.250Z,2.40
2018-12-09T20:13:16.951Z,2.43
2018-12-09T20:15:45.797Z,2.87
2018-12-09T20:18:15.471Z,2.40
2018-12-09T20:20:44.307Z,2.10
2018-12-09T20:23:13.045Z,2.30
2018-12-09T20:25:41.601Z,2.27
2018-12-09T20:28:10.965Z,2.03
2018-12-09T20:30:40.547Z,1.80
2018-12-09T20:33:08.968Z,1.93
2018-12-09T20:35:37.698Z,1.80
2018-12-09T20:38:06.464Z,2.03
2018-12-09T20:40:35.041Z,1.80
2018-12-09T20:43:03.842Z,2.03
2018-12-09T20:45:32.424Z,1.80
2018-12-09T20:48:00.907Z,1.77
2018-12-09T20:50:29.777Z,1.70
2018-12-09T20:52:58.229Z,2.10
2018-12-09T20:55:26.739Z,1.80
2018-12-09T20:57:55.659Z,2.20
2018-12-09T21:00:24.098Z,1.93
2018-12-09T21:02:52.554Z,2.00
2018-12-09T21:05:21.097Z,1.90
2018-12-09T21:07:49.606Z,1.93
2018-12-09T21:10:18.052Z,1.50
2018-12-09T21:12:46.618Z,1.70
2018-12-09T21:15:15.282Z,1.80
2018-12-09T21:17:43.717Z,1.90
2018-12-09T21:20:12.945Z,1.90
2018-12-09T21:22:41.423Z,1.63
2018-12-09T21:25:09.865Z,1.93
2018-12-09T21:27:38.355Z,2.10
2018-12-09T21:30:07.208Z,1.90
2018-12-09T21:32:35.787Z,1.80
2018-12-09T21:35:04.831Z,2.00
2018-12-09T21:37:33.475Z,1.70
2018-12-09T21:40:02.149Z,1.77
2018-12-09T21:42:31.609Z,1.70
2018-12-09T21:45:00.134Z,1.53
2018-12-09T21:47:28.606Z,1.53
2018-12-09T21:49:57.099Z,1.80
2018-12-09T21:52:25.511Z,1.70
2018-12-09T21:54:54.017Z,1.80
2018-12-09T21:57:22.467Z,2.10
2018-12-09T21:59:50.945Z,2.07
2018-12-09T22:02:21.704Z,2.10
2018-12-09T22:04:50.231Z,1.60
2018-12-09T22:07:18.914Z,1.80
2018-12-09T22:09:47.353Z,1.20
2018-12-09T22:12:15.885Z,1.50
2018-12-09T22:14:44.459Z,1.87
2018-12-09T22:17:13.144Z,1.50
2018-12-09T22:19:41.885Z,1.50
2018-12-09T22:22:10.348Z,1.57
2018-12-09T22:24:38.793Z,1.40
2018-12-09T22:27:07.410Z,1.60
2018-12-09T22:29:36.097Z,1.37
2018-12-09T22:32:04.872Z,1.40
2018-12-09T22:34:33.698Z,1.63
2018-12-09T22:37:02.186Z,1.40
2018-12-09T22:39:30.634Z,2.00
2018-12-09T22:41:59.116Z,1.60
2018-12-09T22:44:27.989Z,1.80
2018-12-09T22:46:56.455Z,1.70
2018-12-09T22:49:24.892Z,1.80
2018-12-09T22:51:53.478Z,1.70
2018-12-09T22:54:22.294Z,1.47
2018-12-09T22:56:50.775Z,1.63
2018-12-09T22:59:19.227Z,1.53
2018-12-09T23:01:53.169Z,1.67
2018-12-09T23:04:21.720Z,1.50
2018-12-09T23:06:50.197Z,1.53
2018-12-09T23:09:18.627Z,1.60
2018-12-09T23:11:47.082Z,1.70
2018-12-09T23:14:15.568Z,1.60
2018-12-09T23:16:44.031Z,1.70
2018-12-09T23:19:12.465Z,1.70
2018-12-09T23:21:40.910Z,1.50
2018-12-09T23:24:09.452Z,1.87
2018-12-09T23:26:37.916Z,1.53
2018-12-09T23:29:07.458Z,1.50
2018-12-09T23:31:36.842Z,1.70
2018-12-09T23:34:05.282Z,1.30
2018-12-09T23:36:33.732Z,1.73
2018-12-09T23:39:02.881Z,1.60
2018-12-09T23:41:31.412Z,1.80
2018-12-09T23:43:59.877Z,1.70
2018-12-09T23:46:28.323Z,1.47
2018-12-09T23:48:56.761Z,1.37
2018-12-09T23:51:25.221Z,1.60
2018-12-09T23:53:53.931Z,1.60
2018-12-09T23:56:22.593Z,1.80
2018-12-09T23:58:51.387Z,1.50
